Time;durP1;ratioP1;P1;durP2;ratioP2;P2;SDS_P1;SDS_P2;PMS_P1;PMS_P2;Temp;Humidity;BMP_temperature;BMP_pressure;BME280_temperature;BME280_humidity;BME280_pressure;Samples;Min_cycle;Max_cycle;Signal;HPM_P1;HPM_P2
2022/04/24 00:02:04;;;;;;;7.45;6.78;;;9.90;90.60;;;;;;5023039;28;20080;-68
2022/04/24 00:04:30;;;;;;;7.70;6.90;;;9.80;90.80;;;;;;5023343;28;20065;-68
2022/04/24 00:06:56;;;;;;;7.03;6.30;;;9.70;91.20;;;;;;5018875;28;20121;-68
2022/04/24 00:09:22;;;;;;;8.57;7.05;;;9.80;91.30;;;;;;5025008;28;20146;-69
2022/04/24 00:11:48;;;;;;;7.72;5.40;;;9.70;91.50;;;;;;5026463;28;20124;-68
2022/04/24 00:14:17;;;;;;;8.57;6.82;;;9.70;91.40;;;;;;5024097;28;20045;-69
2022/04/24 00:16:44;;;;;;;8.43;6.70;;;9.70;91.60;;;;;;5025960;28;20033;-68
2022/04/24 00:19:10;;;;;;;9.50;6.95;;;9.70;91.70;;;;;;5025676;28;20030;-68
2022/04/24 00:21:36;;;;;;;6.60;5.90;;;9.60;91.70;;;;;;5021488;28;20045;-69
2022/04/24 00:24:02;;;;;;;9.55;6.50;;;9.50;91.80;;;;;;5009526;28;20378;-68
2022/04/24 00:26:29;;;;;;;6.43;5.75;;;9.50;92.30;;;;;;5022397;28;20041;-69
2022/04/24 00:28:54;;;;;;;7.50;6.03;;;9.50;92.50;;;;;;5020246;28;20048;-68
2022/04/24 00:31:20;;;;;;;7.20;6.40;;;9.50;92.30;;;;;;5023110;28;20045;-68
2022/04/24 00:33:46;;;;;;;9.63;6.50;;;9.40;92.70;;;;;;5037040;28;20747;-69
2022/04/24 00:36:12;;;;;;;7.80;6.60;;;9.40;92.90;;;;;;5025597;28;20041;-69
2022/04/24 00:38:37;;;;;;;8.60;6.05;;;9.40;93.30;;;;;;5024342;28;20045;-68
2022/04/24 00:41:03;;;;;;;7.63;6.35;;;9.30;93.50;;;;;;5026171;28;20052;-68
2022/04/24 00:43:29;;;;;;;8.70;5.85;;;9.30;93.50;;;;;;5022994;28;20053;-68
2022/04/24 00:46:10;;;;;;;9.38;5.70;;;9.30;93.60;;;;;;5023504;28;20061;-68
2022/04/24 00:48:36;;;;;;;6.18;5.57;;;9.20;93.90;;;;;;5024346;28;20474;-68
2022/04/24 00:51:02;;;;;;;7.00;6.07;;;9.20;94.00;;;;;;5024612;28;20132;-69
2022/04/24 00:53:28;;;;;;;6.47;5.82;;;9.20;93.90;;;;;;5017966;28;20103;-68
2022/04/24 00:55:53;;;;;;;9.57;6.32;;;9.20;94.20;;;;;;5022272;28;20485;-68
2022/04/24 00:58:19;;;;;;;8.15;6.50;;;9.10;94.60;;;;;;5019628;28;20079;-68
2022/04/24 01:00:45;;;;;;;7.80;6.50;;;9.10;94.70;;;;;;5025346;28;20085;-68
2022/04/24 01:03:13;;;;;;;9.55;6.53;;;9.10;94.50;;;;;;5017789;28;20046;-68
2022/04/24 01:05:39;;;;;;;9.25;6.40;;;9.10;94.60;;;;;;4992435;28;20049;-68
2022/04/24 01:08:05;;;;;;;7.65;6.57;;;9.10;94.90;;;;;;5021870;28;20096;-68
2022/04/24 01:10:38;;;;;;;8.48;6.60;;;9.10;95.20;;;;;;5021691;28;20045;-68
2022/04/24 01:13:04;;;;;;;6.68;5.63;;;9.00;95.40;;;;;;5021082;28;20687;-69
2022/04/24 01:15:30;;;;;;;7.00;5.90;;;9.00;95.70;;;;;;5023742;28;20118;-68
2022/04/24 01:17:57;;;;;;;7.13;6.22;;;9.00;95.30;;;;;;5022427;28;20041;-68
2022/04/24 01:20:23;;;;;;;9.60;6.18;;;8.90;95.40;;;;;;5025291;28;20033;-68
2022/04/24 01:22:49;;;;;;;6.97;6.22;;;8.90;95.40;;;;;;5021823;28;20576;-68
2022/04/24 01:25:15;;;;;;;7.07;6.28;;;8.90;95.50;;;;;;5022252;28;20073;-69
2022/04/24 01:27:40;;;;;;;8.30;6.13;;;8.90;95.60;;;;;;5023557;28;20049;-68
2022/04/24 01:30:07;;;;;;;7.63;5.78;;;8.90;95.70;;;;;;5020454;28;20067;-68
2022/04/24 01:32:34;;;;;;;7.07;5.95;;;8.90;95.70;;;;;;5023813;28;20454;-68
2022/04/24 01:35:00;;;;;;;7.75;6.13;;;8.80;95.90;;;;;;5022024;28;20073;-69
2022/04/24 01:37:26;;;;;;;7.65;6.85;;;8.80;96.30;;;;;;5022367;28;20941;-69
2022/04/24 01:39:55;;;;;;;9.77;6.40;;;8.80;96.10;;;;;;5001436;28;20049;-68
2022/04/24 01:42:21;;;;;;;6.75;6.05;;;8.80;95.90;;;;;;5025862;28;20412;-68
2022/04/24 01:44:47;;;;;;;7.93;6.22;;;8.80;95.80;;;;;;5020518;28;20130;-68
2022/04/24 01:47:13;;;;;;;9.45;6.38;;;8.80;96.00;;;;;;5023019;28;20562;-68
2022/04/24 01:49:39;;;;;;;6.75;5.72;;;8.70;95.90;;;;;;5020356;28;20038;-69
2022/04/24 01:52:07;;;;;;;8.55;5.95;;;8.70;95.90;;;;;;5022545;28;20531;-68
2022/04/24 01:54:33;;;;;;;7.15;6.40;;;8.70;96.00;;;;;;5020822;28;20045;-67
2022/04/24 01:56:59;;;;;;;8.50;6.53;;;8.70;96.00;;;;;;5020499;28;20061;-68
2022/04/24 01:59:25;;;;;;;7.40;5.80;;;8.70;95.90;;;;;;4998143;28;20049;-68
2022/04/24 02:01:51;;;;;;;7.35;5.82;;;8.70;95.80;;;;;;5023605;28;20061;-68
2022/04/24 02:04:22;;;;;;;7.57;6.43;;;8.70;96.10;;;;;;5021323;28;20095;-68
2022/04/24 02:06:49;;;;;;;7.32;5.95;;;8.70;95.90;;;;;;5019277;28;20115;-68
2022/04/24 02:09:15;;;;;;;6.60;5.88;;;8.70;95.90;;;;;;5024490;28;20149;-68
2022/04/24 02:11:41;;;;;;;8.00;6.57;;;8.70;95.80;;;;;;5018749;28;20128;-68
2022/04/24 02:14:06;;;;;;;7.88;6.60;;;8.60;95.90;;;;;;5021549;28;20042;-67
2022/04/24 02:16:32;;;;;;;6.38;5.78;;;8.60;96.00;;;;;;5023011;28;20192;-68
2022/04/24 02:18:58;;;;;;;6.57;5.90;;;8.60;96.10;;;;;;5020574;28;20450;-69
2022/04/24 02:21:24;;;;;;;6.40;5.70;;;8.50;95.80;;;;;;5020002;28;20080;-67
2022/04/24 02:23:49;;;;;;;7.43;6.35;;;8.50;96.30;;;;;;5022469;28;20100;-68
2022/04/24 02:26:15;;;;;;;8.88;6.10;;;8.40;96.00;;;;;;5020821;28;20401;-68
2022/04/24 02:28:41;;;;;;;7.68;6.07;;;8.40;96.20;;;;;;5020964;28;20117;-67
2022/04/24 02:31:07;;;;;;;7.43;6.35;;;8.40;96.40;;;;;;5020664;28;20045;-68
2022/04/24 02:33:34;;;;;;;10.10;6.65;;;8.40;96.40;;;;;;5020841;28;20504;-68
2022/04/24 02:35:59;;;;;;;7.70;5.95;;;8.30;96.30;;;;;;5022894;28;20045;-68
2022/04/24 02:38:25;;;;;;;7.97;6.80;;;8.30;96.30;;;;;;5022719;28;20522;-68
2022/04/24 02:40:51;;;;;;;8.00;6.50;;;8.30;96.40;;;;;;5023491;28;20066;-68
2022/04/24 02:43:17;;;;;;;8.13;6.22;;;8.20;96.70;;;;;;5020596;28;20128;-68
2022/04/24 02:45:43;;;;;;;7.93;6.57;;;8.20;96.80;;;;;;5022949;28;20055;-68
2022/04/24 02:48:09;;;;;;;7.72;6.28;;;8.10;96.90;;;;;;5022539;28;20207;-68
2022/04/24 02:50:35;;;;;;;9.13;7.78;;;8.00;97.30;;;;;;5025768;28;20061;-68
2022/04/24 02:53:01;;;;;;;9.20;6.82;;;7.90;97.60;;;;;;5025787;28;20055;-68
2022/04/24 02:55:27;;;;;;;7.50;6.28;;;7.90;97.80;;;;;;5010915;28;20121;-68
2022/04/24 02:57:53;;;;;;;8.25;7.45;;;7.80;97.90;;;;;;5026151;28;20037;-68
2022/04/24 03:00:24;;;;;;;7.70;6.90;;;7.70;98.10;;;;;;5027160;28;20114;-68
2022/04/24 03:02:51;;;;;;;8.13;6.82;;;7.70;98.30;;;;;;5027704;28;20129;-68
2022/04/24 03:05:19;;;;;;;7.43;6.72;;;7.70;98.40;;;;;;5026878;28;20034;-68
2022/04/24 03:07:46;;;;;;;8.60;7.22;;;7.70;98.30;;;;;;5023946;28;20038;-68
2022/04/24 03:10:12;;;;;;;7.47;6.55;;;7.50;98.10;;;;;;5025548;28;20111;-68
2022/04/24 03:12:38;;;;;;;7.72;6.93;;;7.60;98.40;;;;;;5023611;28;20033;-68
2022/04/24 03:15:05;;;;;;;9.60;6.35;;;7.50;98.60;;;;;;5027874;28;20041;-68
2022/04/24 03:17:34;;;;;;;7.65;6.80;;;7.50;98.50;;;;;;5025479;28;20450;-68
2022/04/24 03:20:06;;;;;;;7.70;6.40;;;7.50;98.60;;;;;;5022242;28;20189;-68
2022/04/24 03:22:33;;;;;;;7.15;6.45;;;7.50;98.40;;;;;;5023755;28;20041;-68
2022/04/24 03:24:59;;;;;;;6.95;6.15;;;7.50;98.60;;;;;;5025183;28;20065;-68
2022/04/24 03:27:25;;;;;;;8.48;6.28;;;7.50;98.50;;;;;;5022734;28;20026;-68
2022/04/24 03:29:51;;;;;;;9.95;6.47;;;7.50;98.70;;;;;;5026524;28;20399;-68
2022/04/24 03:32:17;;;;;;;7.35;6.60;;;7.40;98.70;;;;;;5025747;28;20555;-68
2022/04/24 03:34:43;;;;;;;7.35;6.47;;;7.40;98.60;;;;;;5039168;28;20057;-68
2022/04/24 03:37:09;;;;;;;8.10;6.15;;;7.40;98.80;;;;;;5026493;28;20079;-67
2022/04/24 03:39:34;;;;;;;8.35;6.97;;;7.30;98.60;;;;;;5023860;28;20492;-67
2022/04/24 03:42:03;;;;;;;7.88;7.05;;;7.30;98.70;;;;;;5024699;28;20046;-68
2022/04/24 03:44:28;;;;;;;8.70;7.43;;;7.30;98.90;;;;;;5027959;28;20045;-68
2022/04/24 03:46:54;;;;;;;7.50;6.63;;;7.30;98.90;;;;;;5025220;28;20037;-68
2022/04/24 03:49:20;;;;;;;6.95;6.20;;;7.30;99.00;;;;;;5023732;28;20045;-69
2022/04/24 03:51:46;;;;;;;8.23;6.85;;;7.30;98.80;;;;;;5024061;28;21777;-69
2022/04/24 03:54:12;;;;;;;8.35;6.93;;;7.30;98.80;;;;;;5023157;28;20053;-67
2022/04/24 03:56:37;;;;;;;8.13;6.97;;;7.20;98.70;;;;;;5026988;28;20129;-68
2022/04/24 03:59:03;;;;;;;9.82;7.60;;;7.20;99.10;;;;;;5026595;28;20527;-68
2022/04/24 04:01:28;;;;;;;8.48;7.22;;;7.20;99.10;;;;;;5023491;28;20419;-68
2022/04/24 04:03:56;;;;;;;8.05;7.10;;;7.20;99.20;;;;;;5023572;28;20037;-67
2022/04/24 04:06:22;;;;;;;7.70;6.53;;;7.20;99.00;;;;;;5025164;28;20057;-67
2022/04/24 04:08:47;;;;;;;7.88;7.03;;;7.10;99.10;;;;;;5021957;28;20398;-68
2022/04/24 04:11:13;;;;;;;7.65;6.82;;;7.20;99.40;;;;;;5023612;28;20134;-67
2022/04/24 04:13:39;;;;;;;7.82;6.47;;;7.20;99.40;;;;;;5023649;28;20088;-68
2022/04/24 04:16:05;;;;;;;11.57;7.85;;;7.20;99.30;;;;;;5023131;28;20064;-67
2022/04/24 04:18:31;;;;;;;7.40;6.70;;;7.10;99.50;;;;;;5024500;28;20493;-69
2022/04/24 04:20:57;;;;;;;9.00;7.38;;;7.10;99.60;;;;;;5023715;28;20041;-68
2022/04/24 04:23:23;;;;;;;8.55;7.05;;;7.10;99.60;;;;;;5038073;28;20045;-68
2022/04/24 04:25:48;;;;;;;8.98;7.18;;;7.10;99.70;;;;;;5022337;28;20099;-68
2022/04/24 04:28:14;;;;;;;9.10;6.68;;;7.10;99.90;;;;;;5023357;28;20049;-68
2022/04/24 04:30:41;;;;;;;7.60;6.78;;;7.00;99.90;;;;;;5021925;28;20049;-68
2022/04/24 04:33:07;;;;;;;9.27;6.70;;;7.00;99.90;;;;;;5023319;28;20048;-68
2022/04/24 04:35:33;;;;;;;9.23;6.47;;;7.10;99.90;;;;;;5022421;28;20131;-68
2022/04/24 04:37:58;;;;;;;7.90;7.10;;;7.00;99.90;;;;;;5024059;28;20045;-68
2022/04/24 04:40:24;;;;;;;7.78;6.03;;;7.00;99.90;;;;;;5019590;28;20730;-68
2022/04/24 04:42:50;;;;;;;10.25;6.90;;;7.00;99.90;;;;;;5025242;28;20053;-67
2022/04/24 04:45:17;;;;;;;7.90;6.60;;;7.00;99.90;;;;;;5007158;28;20406;-68
2022/04/24 04:47:43;;;;;;;8.75;7.22;;;7.00;99.90;;;;;;5021271;28;20057;-68
2022/04/24 04:50:09;;;;;;;7.38;6.60;;;7.00;99.90;;;;;;5023493;28;20133;-68
2022/04/24 04:52:35;;;;;;;7.82;6.97;;;7.10;99.90;;;;;;5022726;28;20044;-68
2022/04/24 04:55:03;;;;;;;10.35;7.00;;;7.00;99.90;;;;;;5019813;28;20045;-68
2022/04/24 04:57:29;;;;;;;8.38;7.25;;;7.00;99.90;;;;;;5025141;28;20531;-68
2022/04/24 04:59:55;;;;;;;11.40;7.07;;;7.00;99.90;;;;;;5007582;28;20046;-68
2022/04/24 05:02:21;;;;;;;7.32;6.53;;;7.10;99.90;;;;;;5021000;28;20037;-68
2022/04/24 05:04:46;;;;;;;9.18;7.10;;;7.10;99.90;;;;;;5007187;28;20064;-68
2022/04/24 05:07:12;;;;;;;9.85;6.93;;;7.10;99.90;;;;;;5023142;28;20732;-67
2022/04/24 05:09:38;;;;;;;8.07;6.75;;;7.20;99.90;;;;;;5022306;28;20078;-67
2022/04/24 05:12:05;;;;;;;9.48;7.57;;;7.20;99.90;;;;;;5019674;28;20045;-68
2022/04/24 05:14:31;;;;;;;6.70;6.10;;;7.20;99.90;;;;;;5022640;28;20109;-68
2022/04/24 05:16:57;;;;;;;11.85;6.97;;;7.20;99.90;;;;;;5023458;28;20103;-68
2022/04/24 05:19:25;;;;;;;8.55;6.60;;;7.30;99.90;;;;;;5020514;28;20069;-68
2022/04/24 05:21:51;;;;;;;8.88;7.00;;;7.40;99.90;;;;;;5024400;28;20061;-68
2022/04/24 05:24:17;;;;;;;9.10;7.20;;;7.50;99.90;;;;;;5022429;28;20393;-68
2022/04/24 05:26:43;;;;;;;7.93;7.03;;;7.60;99.90;;;;;;5020881;28;20049;-68
2022/04/24 05:29:09;;;;;;;8.57;6.90;;;7.70;99.80;;;;;;5022401;28;20069;-68
2022/04/24 05:31:34;;;;;;;7.72;6.25;;;7.80;99.60;;;;;;5021084;28;20057;-68
2022/04/24 05:34:00;;;;;;;8.50;6.80;;;7.90;99.40;;;;;;5022358;28;20477;-68
2022/04/24 05:36:25;;;;;;;6.93;6.10;;;8.00;99.00;;;;;;5023087;28;20033;-68
2022/04/24 05:38:51;;;;;;;7.20;5.65;;;8.20;98.80;;;;;;5021235;28;20037;-68
2022/04/24 05:41:17;;;;;;;8.30;6.10;;;8.30;98.10;;;;;;5006156;28;20045;-68
2022/04/24 05:43:43;;;;;;;7.78;6.32;;;8.40;98.00;;;;;;5020795;28;20038;-68
2022/04/24 05:46:09;;;;;;;6.70;6.00;;;8.60;97.50;;;;;;5022599;28;20366;-68
2022/04/24 05:48:34;;;;;;;6.88;6.18;;;8.80;97.10;;;;;;5023007;28;20528;-68
2022/04/24 05:51:00;;;;;;;9.05;5.93;;;8.70;96.90;;;;;;5023998;28;20053;-68
2022/04/24 05:53:26;;;;;;;8.25;6.38;;;8.60;96.90;;;;;;5022746;28;20218;-68
2022/04/24 05:55:51;;;;;;;8.57;6.40;;;8.50;96.90;;;;;;5025699;28;20045;-68
2022/04/24 05:58:17;;;;;;;6.95;6.13;;;8.50;97.20;;;;;;5007770;28;20481;-67
2022/04/24 06:00:43;;;;;;;9.40;6.65;;;8.40;97.20;;;;;;5004753;28;20055;-68
2022/04/24 06:03:09;;;;;;;7.55;5.90;;;8.30;97.40;;;;;;5019062;28;20485;-68
2022/04/24 06:05:36;;;;;;;7.15;5.93;;;8.40;97.60;;;;;;5019063;28;20477;-68
2022/04/24 06:08:01;;;;;;;9.25;6.57;;;8.40;98.00;;;;;;5001593;28;20037;-68
2022/04/24 06:10:27;;;;;;;7.43;6.18;;;8.40;97.70;;;;;;5022037;28;20086;-68
2022/04/24 06:12:55;;;;;;;7.85;6.15;;;8.50;97.70;;;;;;5022068;28;20044;-67
2022/04/24 06:15:24;;;;;;;8.30;6.80;;;8.50;97.60;;;;;;5022468;28;20069;-68
2022/04/24 06:17:55;;;;;;;6.90;5.75;;;8.60;97.50;;;;;;5004034;28;20106;-68
2022/04/24 06:20:23;;;;;;;7.93;6.07;;;8.70;97.40;;;;;;5019544;28;20132;-68
2022/04/24 06:22:50;;;;;;;8.18;6.50;;;8.70;97.30;;;;;;5003131;28;20840;-68
2022/04/24 06:25:23;;;;;;;8.10;6.95;;;8.70;97.20;;;;;;5008477;28;20504;-69
2022/04/24 06:27:50;;;;;;;7.70;6.18;;;8.70;97.00;;;;;;5020943;28;20037;-68
2022/04/24 06:30:18;;;;;;;9.02;7.72;;;8.70;97.40;;;;;;5022274;28;20033;-68
2022/04/24 06:32:44;;;;;;;10.60;7.57;;;8.80;97.30;;;;;;5040150;28;20046;-69
2022/04/24 06:35:13;;;;;;;8.25;6.70;;;8.90;97.20;;;;;;5026158;28;20489;-68
2022/04/24 06:37:40;;;;;;;8.98;7.13;;;8.90;97.20;;;;;;5024015;28;20096;-69
2022/04/24 06:40:07;;;;;;;7.00;6.25;;;8.90;96.70;;;;;;5030455;28;20045;-67
2022/04/24 06:42:46;;;;;;;9.30;6.38;;;9.00;97.00;;;;;;5028714;28;20061;-69
2022/04/24 06:45:12;;;;;;;8.38;6.85;;;9.10;96.70;;;;;;5030293;28;20050;-68
2022/04/24 06:47:38;;;;;;;10.10;6.82;;;9.20;96.80;;;;;;5029173;28;20052;-68
2022/04/24 06:50:04;;;;;;;9.57;6.72;;;9.40;96.70;;;;;;5032487;28;20148;-68
2022/04/24 06:52:29;;;;;;;8.55;6.97;;;9.50;96.40;;;;;;5030587;28;20046;-68
2022/04/24 06:54:55;;;;;;;6.90;6.20;;;9.50;95.60;;;;;;5031304;28;20038;-68
2022/04/24 06:57:21;;;;;;;7.53;6.78;;;9.60;95.60;;;;;;5027032;28;20539;-69
2022/04/24 06:59:46;;;;;;;9.27;6.20;;;9.70;95.50;;;;;;5033207;28;20482;-67
2022/04/24 07:02:12;;;;;;;7.32;6.25;;;9.80;95.00;;;;;;5030325;28;20377;-68
2022/04/24 07:04:37;;;;;;;9.32;6.68;;;9.90;95.10;;;;;;5028774;28;20084;-70
2022/04/24 07:07:03;;;;;;;9.75;6.43;;;9.90;93.80;;;;;;5024627;28;20041;-68
2022/04/24 07:09:29;;;;;;;8.98;5.75;;;9.90;93.60;;;;;;5023778;28;20666;-68
2022/04/24 07:11:55;;;;;;;6.60;5.90;;;10.10;93.80;;;;;;5026230;28;20378;-68
2022/04/24 07:14:20;;;;;;;8.13;6.15;;;10.20;93.30;;;;;;5008366;28;20960;-68
2022/04/24 07:16:46;;;;;;;10.30;6.80;;;10.10;92.80;;;;;;5022215;28;20037;-68
2022/04/24 07:19:12;;;;;;;8.80;6.28;;;10.20;92.60;;;;;;5024059;28;20518;-69
2022/04/24 07:21:37;;;;;;;7.95;5.82;;;10.30;92.30;;;;;;5029940;28;20090;-68
2022/04/24 07:24:04;;;;;;;8.20;5.70;;;10.50;92.80;;;;;;5026263;28;20136;-68
2022/04/24 07:26:30;;;;;;;6.65;5.47;;;10.80;92.00;;;;;;5023904;28;20049;-68
2022/04/24 07:28:55;;;;;;;6.80;5.20;;;11.10;91.40;;;;;;5024660;28;20100;-68
2022/04/24 07:31:21;;;;;;;7.32;5.30;;;11.70;91.40;;;;;;5027439;28;20056;-69
2022/04/24 07:33:47;;;;;;;8.07;4.93;;;12.30;90.00;;;;;;5023512;28;20100;-69
2022/04/24 07:36:12;;;;;;;6.78;5.68;;;12.60;85.20;;;;;;5024494;28;20164;-69
2022/04/24 07:38:39;;;;;;;6.13;4.70;;;12.60;82.40;;;;;;5022856;28;20501;-68
2022/04/24 07:41:05;;;;;;;7.22;5.03;;;12.60;81.10;;;;;;5025105;28;20130;-68
2022/04/24 07:43:31;;;;;;;6.88;4.28;;;12.30;81.60;;;;;;5024271;28;20041;-68
2022/04/24 07:45:56;;;;;;;7.35;5.18;;;12.70;81.90;;;;;;5041135;28;20045;-69
2022/04/24 07:48:22;;;;;;;6.97;5.07;;;13.10;80.00;;;;;;5029747;28;20469;-69
2022/04/24 07:50:49;;;;;;;5.57;4.10;;;13.50;79.90;;;;;;5028166;28;20647;-68
2022/04/24 07:53:16;;;;;;;5.07;4.53;;;13.80;78.00;;;;;;5024094;28;20393;-69
2022/04/24 07:55:47;;;;;;;5.03;3.40;;;14.10;76.80;;;;;;5022299;28;20080;-69
2022/04/24 07:58:13;;;;;;;5.63;4.20;;;14.20;74.20;;;;;;5021660;28;20111;-69
2022/04/24 08:00:40;;;;;;;7.90;4.03;;;14.10;72.50;;;;;;5025525;28;20057;-69
2022/04/24 08:03:10;;;;;;;7.30;3.72;;;14.10;72.80;;;;;;5021869;28;20512;-69
2022/04/24 08:05:47;;;;;;;4.55;3.45;;;14.40;73.40;;;;;;5019267;28;20041;-68
2022/04/24 08:08:15;;;;;;;5.05;3.67;;;15.10;72.20;;;;;;5027202;28;20079;-69
2022/04/24 08:10:44;;;;;;;5.10;3.88;;;15.10;69.80;;;;;;5024882;28;20045;-69
2022/04/24 08:13:10;;;;;;;4.47;2.97;;;15.40;69.70;;;;;;5023301;28;20120;-70
2022/04/24 08:15:37;;;;;;;5.07;3.58;;;15.70;69.70;;;;;;5025206;28;20042;-68
2022/04/24 08:18:04;;;;;;;6.03;4.38;;;15.70;69.30;;;;;;5018438;28;20136;-69
2022/04/24 08:20:32;;;;;;;5.07;3.45;;;15.70;68.00;;;;;;5024832;28;20152;-73
2022/04/24 08:22:59;;;;;;;4.10;2.80;;;15.90;67.30;;;;;;5022627;28;20042;-70
2022/04/24 08:25:26;;;;;;;4.80;3.15;;;15.90;66.10;;;;;;5024787;28;20041;-69
2022/04/24 08:27:55;;;;;;;4.65;3.38;;;16.00;66.30;;;;;;5025439;28;20060;-70
2022/04/24 08:30:23;;;;;;;5.60;3.03;;;16.30;65.30;;;;;;5025220;28;20037;-70
2022/04/24 08:32:49;;;;;;;4.78;2.67;;;16.70;63.60;;;;;;5006503;28;20060;-70
2022/04/24 08:35:19;;;;;;;3.70;2.47;;;16.60;62.20;;;;;;5022485;28;20056;-70
2022/04/24 08:37:46;;;;;;;3.72;2.22;;;16.80;62.40;;;;;;5021519;28;20088;-70
2022/04/24 08:40:13;;;;;;;4.93;3.15;;;17.20;61.90;;;;;;5022702;28;20041;-68
2022/04/24 08:42:42;;;;;;;3.45;1.85;;;17.30;60.80;;;;;;5023659;28;20115;-69
2022/04/24 08:45:13;;;;;;;5.47;1.55;;;17.30;57.40;;;;;;5024023;28;20039;-68
2022/04/24 08:47:40;;;;;;;2.25;1.33;;;16.90;56.30;;;;;;5027603;28;20060;-69
2022/04/24 08:50:06;;;;;;;2.50;1.35;;;16.80;57.20;;;;;;5021731;28;20434;-70
2022/04/24 08:52:32;;;;;;;3.58;1.52;;;16.60;56.70;;;;;;5021696;28;20059;-69
2022/04/24 08:54:58;;;;;;;3.33;1.98;;;16.90;56.80;;;;;;5026239;28;20439;-69
2022/04/24 08:57:30;;;;;;;2.70;1.38;;;17.10;56.10;;;;;;5021950;28;20091;-70
2022/04/24 09:00:09;;;;;;;3.00;1.70;;;17.10;55.80;;;;;;5021631;28;20049;-70
2022/04/24 09:02:36;;;;;;;2.58;1.17;;;17.50;55.00;;;;;;5002917;28;20103;-70
2022/04/24 09:05:04;;;;;;;2.50;1.85;;;17.40;55.20;;;;;;4991702;28;20041;-69
2022/04/24 09:07:34;;;;;;;5.82;2.97;;;17.30;54.30;;;;;;5020488;28;20080;-70
2022/04/24 09:10:09;;;;;;;3.70;1.55;;;17.20;53.90;;;;;;5022380;28;20033;-70
2022/04/24 09:12:35;;;;;;;2.33;1.58;;;17.30;54.10;;;;;;5020204;28;20046;-70
2022/04/24 09:15:02;;;;;;;3.08;1.40;;;17.20;53.10;;;;;;5006103;28;20056;-70
2022/04/24 09:17:32;;;;;;;3.90;1.60;;;17.30;53.90;;;;;;5025856;28;20465;-70
2022/04/24 09:20:00;;;;;;;6.55;1.83;;;17.40;54.40;;;;;;5020831;28;20104;-70
2022/04/24 09:22:26;;;;;;;2.15;1.23;;;17.40;52.30;;;;;;5023516;28;20060;-70
2022/04/24 09:24:56;;;;;;;2.83;1.60;;;17.40;53.40;;;;;;5021285;28;20044;-69
2022/04/24 09:27:32;;;;;;;2.72;1.75;;;17.70;52.90;;;;;;5022058;28;20060;-68
2022/04/24 09:30:15;;;;;;;2.17;1.80;;;17.80;52.30;;;;;;5020801;28;20087;-70
2022/04/24 09:32:55;;;;;;;3.90;1.73;;;17.60;52.10;;;;;;5019614;28;20045;-70
2022/04/24 09:35:24;;;;;;;3.08;2.20;;;17.60;54.00;;;;;;5022472;28;20363;-71
2022/04/24 09:37:49;;;;;;;5.00;1.85;;;17.90;54.60;;;;;;5023159;28;20623;-70
2022/04/24 09:40:16;;;;;;;4.72;1.92;;;18.00;53.70;;;;;;5007378;28;20509;-70
2022/04/24 09:42:54;;;;;;;2.63;1.73;;;18.00;51.60;;;;;;5021589;28;20207;-71
2022/04/24 09:45:25;;;;;;;3.20;1.50;;;18.10;51.80;;;;;;5018552;28;20049;-69
2022/04/24 09:47:58;;;;;;;2.50;1.58;;;18.30;52.00;;;;;;5005318;28;20940;-70
2022/04/24 09:50:31;;;;;;;4.97;2.87;;;18.50;51.30;;;;;;5023291;28;20223;-68
2022/04/24 09:52:57;;;;;;;4.65;3.30;;;18.50;51.80;;;;;;5020418;28;20080;-70
2022/04/24 09:55:26;;;;;;;4.25;1.63;;;18.50;51.70;;;;;;5021057;28;20117;-70
2022/04/24 09:57:54;;;;;;;3.50;1.77;;;18.30;51.90;;;;;;5021995;28;20060;-70
2022/04/24 10:00:21;;;;;;;3.60;2.10;;;18.10;50.60;;;;;;5020395;28;20056;-70
2022/04/24 10:02:50;;;;;;;2.58;1.80;;;18.30;51.80;;;;;;5019723;28;20136;-70
2022/04/24 10:05:17;;;;;;;4.13;2.40;;;18.50;51.60;;;;;;5021000;28;20111;-70
2022/04/24 10:07:44;;;;;;;4.60;1.95;;;18.30;51.90;;;;;;5019893;28;20048;-70
2022/04/24 10:10:11;;;;;;;3.42;1.63;;;18.40;51.50;;;;;;5019557;28;20047;-70
2022/04/24 10:12:37;;;;;;;4.03;1.98;;;18.60;51.40;;;;;;4999039;28;20041;-71
2022/04/24 10:15:13;;;;;;;3.05;1.85;;;18.60;50.90;;;;;;5020213;28;20070;-69
2022/04/24 10:17:57;;;;;;;5.20;2.10;;;18.60;52.00;;;;;;5017331;28;20053;-69
2022/04/24 10:20:41;;;;;;;;;;;18.60;51.50;;;;;;5000955;28;20114;-69
2022/04/24 10:23:09;;;;;;;2.90;2.10;;;18.30;50.50;;;;;;5019297;28;19953;-70
2022/04/24 10:25:42;;;;;;;3.30;2.20;;;18.20;51.50;;;;;;5021234;28;20053;-70
2022/04/24 10:28:16;;;;;;;4.55;1.88;;;18.10;51.70;;;;;;5021467;28;20044;-70
2022/04/24 10:30:44;;;;;;;3.88;2.08;;;18.30;51.90;;;;;;5025999;28;20069;-70
2022/04/24 10:33:28;;;;;;;3.08;1.95;;;18.40;50.40;;;;;;5022703;28;20045;-69
2022/04/24 10:35:59;;;;;;;3.03;2.03;;;18.20;51.70;;;;;;5019181;28;20478;-69
2022/04/24 10:38:26;;;;;;;3.53;1.65;;;18.30;51.00;;;;;;5020709;28;20083;-70
2022/04/24 10:41:19;;;;;;;2.92;1.80;;;18.10;50.40;;;;;;5019987;28;20195;-69
2022/04/24 10:43:48;;;;;;;3.38;1.65;;;18.00;49.70;;;;;;5014000;28;20041;-70
2022/04/24 10:46:32;;;;;;;3.22;1.58;;;17.80;49.30;;;;;;5019422;28;20077;-70
2022/04/24 10:49:09;;;;;;;2.47;1.77;;;18.00;49.70;;;;;;5020695;28;20390;-70
2022/04/24 10:51:37;;;;;;;5.57;1.40;;;17.70;50.60;;;;;;5024057;28;20068;-70
2022/04/24 10:54:08;;;;;;;3.47;1.48;;;17.50;49.90;;;;;;5024608;28;20049;-70
2022/04/24 10:56:35;;;;;;;3.10;1.15;;;17.30;49.90;;;;;;5023232;28;21494;-69
2022/04/24 10:59:12;;;;;;;2.17;1.20;;;17.30;50.50;;;;;;5017060;28;20436;-69
2022/04/24 11:01:48;;;;;;;2.08;1.20;;;17.90;50.30;;;;;;5034941;28;20042;-70
2022/04/24 11:04:15;;;;;;;4.80;1.20;;;17.90;50.00;;;;;;5017559;28;20041;-69
2022/04/24 11:07:02;;;;;;;4.57;1.70;;;17.90;49.30;;;;;;5020004;28;20046;-70
2022/04/24 11:09:33;;;;;;;2.80;1.50;;;17.40;49.20;;;;;;5021423;28;20493;-70
2022/04/24 11:12:07;;;;;;;3.00;1.38;;;16.80;50.40;;;;;;5024187;28;20034;-70
2022/04/24 11:14:34;;;;;;;;;;;17.00;50.70;;;;;;5025442;28;20076;-70
2022/04/24 11:17:01;;;;;;;2.78;1.63;;;16.90;51.40;;;;;;5023497;28;19964;-69
2022/04/24 11:19:30;;;;;;;1.60;1.10;;;16.90;52.10;;;;;;5026006;28;20741;-70
2022/04/24 11:22:02;;;;;;;2.42;1.30;;;17.00;49.30;;;;;;5018438;28;20052;-70
2022/04/24 11:24:31;;;;;;;3.30;1.40;;;17.00;49.80;;;;;;5024298;28;20060;-68
2022/04/24 11:27:01;;;;;;;1.20;0.90;;;17.40;48.90;;;;;;5023696;28;20037;-66
2022/04/24 11:29:26;;;;;;;3.05;1.25;;;17.60;48.90;;;;;;5025017;28;20131;-67
2022/04/24 11:31:54;;;;;;;1.90;1.00;;;18.10;47.80;;;;;;5030865;28;20077;-67
2022/04/24 11:34:21;;;;;;;4.05;1.10;;;18.00;44.20;;;;;;5024118;28;20053;-67
2022/04/24 11:36:49;;;;;;;2.28;1.20;;;18.20;45.70;;;;;;5025410;28;20053;-66
2022/04/24 11:39:16;;;;;;;3.83;0.90;;;18.70;46.70;;;;;;5024765;28;20049;-67
2022/04/24 11:41:46;;;;;;;3.88;1.40;;;19.30;47.20;;;;;;5028019;28;20061;-66
2022/04/24 11:50:13;;;;;;;2.97;1.05;;;18.40;45.20;;;;;;5025109;28;20047;-68
2022/04/24 11:52:44;;;;;;;2.13;1.20;;;19.10;46.70;;;;;;5021890;28;20052;-68
2022/04/24 11:55:12;;;;;;;3.55;1.33;;;19.70;44.90;;;;;;5029211;28;20045;-68
2022/04/24 11:57:38;;;;;;;4.28;1.50;;;19.40;45.50;;;;;;5014379;28;20057;-67
2022/04/24 12:00:08;;;;;;;2.25;1.02;;;18.60;47.20;;;;;;5031757;28;20046;-67
2022/04/24 12:02:35;;;;;;;3.22;1.50;;;18.60;47.40;;;;;;5026823;28;20117;-66
2022/04/24 12:05:02;;;;;;;3.60;1.40;;;18.20;48.60;;;;;;5028755;28;20041;-67
2022/04/24 12:07:32;;;;;;;5.45;1.40;;;17.70;49.10;;;;;;5030564;28;20037;-67
2022/04/24 12:10:06;;;;;;;3.83;1.25;;;17.10;49.50;;;;;;5026731;28;20104;-66
2022/04/24 12:12:47;;;;;;;1.60;1.20;;;16.60;49.70;;;;;;5029195;28;20048;-70
2022/04/24 12:15:18;;;;;;;3.35;1.27;;;16.20;51.30;;;;;;5029234;28;20041;-66
2022/04/24 12:17:52;;;;;;;1.85;1.05;;;16.50;52.20;;;;;;5028253;28;20116;-67
2022/04/24 12:20:19;;;;;;;2.45;1.40;;;17.40;51.30;;;;;;5043306;28;20485;-66
2022/04/24 12:22:45;;;;;;;2.22;1.10;;;18.20;50.30;;;;;;5031924;28;20043;-68
2022/04/24 12:25:15;;;;;;;3.05;1.42;;;18.30;48.30;;;;;;5012182;28;20050;-70
2022/04/24 12:27:52;;;;;;;2.53;1.17;;;18.30;48.00;;;;;;5009738;28;20416;-69
2022/04/24 12:30:18;;;;;;;4.90;1.40;;;18.40;47.90;;;;;;5027676;28;20425;-70
2022/04/24 12:32:43;;;;;;;2.22;1.30;;;18.40;48.80;;;;;;5027392;28;20041;-70
2022/04/24 12:35:35;;;;;;;4.00;1.40;;;18.10;48.80;;;;;;5012978;28;20126;-70
2022/04/24 12:38:11;;;;;;;1.90;1.30;;;18.10;49.40;;;;;;5025327;28;20426;-70
2022/04/24 12:40:37;;;;;;;2.88;1.27;;;17.50;48.50;;;;;;5023797;28;20136;-70
2022/04/24 12:43:03;;;;;;;2.90;1.73;;;17.40;49.50;;;;;;5026019;28;20422;-70
2022/04/24 12:45:29;;;;;;;2.15;1.50;;;17.00;51.30;;;;;;5018763;28;20095;-71
2022/04/24 12:47:57;;;;;;;5.47;1.75;;;16.60;52.10;;;;;;5016176;28;20160;-71
2022/04/24 12:50:23;;;;;;;3.17;1.55;;;16.10;53.50;;;;;;5023319;28;20049;-69
2022/04/24 12:52:49;;;;;;;3.10;1.77;;;16.00;54.30;;;;;;5006358;28;20787;-71
2022/04/24 12:55:16;;;;;;;3.95;1.85;;;15.90;54.00;;;;;;5007982;28;20087;-70
2022/04/24 12:57:41;;;;;;;3.72;1.65;;;16.30;54.10;;;;;;5027687;28;20049;-70
2022/04/24 13:00:07;;;;;;;3.28;1.75;;;16.30;53.80;;;;;;5011317;28;20045;-70
2022/04/24 13:02:34;;;;;;;4.50;2.30;;;15.90;54.60;;;;;;5024873;28;20080;-70